Terminal Aerodrome Forecast
Issued by NWS Upton, NY

Home | Current Version | Previous Version | Text Only | Print | Product List | Glossary On
Versions: 1 2 3 4 5 6 7 8 9 10 11 12 13 14 15 16 17 18 19 20 21 22 23 24 25 26 27 28
000
FTUS41 KOKX 301936 AAA
TAFISP
TAF AMD
KISP 301936Z 3020/0118 18012G18KT P6SM SCT050 SCT150
     FM010000 15008KT P6SM SCT010 BKN050 BKN100
     FM010400 14006KT 6SM BR VCSH FEW006 BKN010
      TEMPO 0108/0112 SHRA
     FM011200 21004KT 6SM -SHRA BR BKN012 BKN025
     FM011500 20010KT P6SM SCT025 BKN040=

USA.gov is the U.S. government's official web portal to all federal, state and local government web resources and services.